Terminal Aerodrome Forecast
Issued by NWS

Home | Current Version | Previous Version | Text Only | Print | Product List | Glossary On
Versions: 1 2 3 4 5 6 7 8 9 10 11 12 13 14 15 16 17 18 19 20 21 22 23 24 25
021
FTUS44 KFWD 260305 AAA
TAFAFW
TAF AMD
KAFW 260305Z 2603/2624 15006KT P6SM SCT120 BKN250
     FM261500 11006KT P6SM FEW040
     FM261900 09006KT P6SM VCTS SCT060CB BKN300=

USA.gov is the U.S. government's official web portal to all federal, state and local government web resources and services.